Time;durP1;ratioP1;P1;durP2;ratioP2;P2;SDS_P1;SDS_P2;PMS_P1;PMS_P2;Temp;Humidity;BMP_temperature;BMP_pressure;BME280_temperature;BME280_humidity;BME280_pressure;Samples;Min_cycle;Max_cycle;Signal;HPM_P1;HPM_P2
2023/05/09 00:00:22;;;;;;;47.58;34.70;;;;;;;;;;5042419;28;20202;-64
2023/05/09 00:02:50;;;;;;;53.20;33.70;;;;;;;;;;5054720;28;20474;-64
2023/05/09 00:05:18;;;;;;;45.17;32.30;;;;;;;;;;5068180;28;20198;-63
2023/05/09 00:07:46;;;;;;;48.22;34.05;;;;;;;;;;5071043;28;20221;-65
2023/05/09 00:10:14;;;;;;;47.97;34.97;;;;;;;;;;5044992;28;20205;-63
2023/05/09 00:12:42;;;;;;;50.08;35.08;;;;;;;;;;5055463;28;20272;-64
2023/05/09 00:15:12;;;;;;;52.08;36.67;;;;;;;;;;5059940;28;20206;-65
2023/05/09 00:17:40;;;;;;;50.00;35.65;;;;;;;;;;5064035;28;20221;-65
2023/05/09 00:20:11;;;;;;;50.40;35.90;;;;;;;;;;5042601;28;20272;-64
2023/05/09 00:22:40;;;;;;;51.38;35.58;;;;;;;;;;5053993;28;20619;-64
2023/05/09 00:25:09;;;;;;;50.10;35.53;;;;;;;;;;5040460;28;20221;-64
2023/05/09 00:27:37;;;;;;;49.67;34.65;;;;;;;;;;5042216;28;20225;-64
2023/05/09 00:30:05;;;;;;;56.47;36.60;;;;;;;;;;5058853;28;20282;-64
2023/05/09 00:32:33;;;;;;;46.13;33.00;;;;;;;;;;5055313;28;20222;-63
2023/05/09 00:35:02;;;;;;;49.23;34.67;;;;;;;;;;5054631;28;20217;-64
2023/05/09 00:37:30;;;;;;;50.70;35.67;;;;;;;;;;5042234;28;20230;-63
2023/05/09 00:39:58;;;;;;;47.57;34.10;;;;;;;;;;5033983;28;20225;-64
2023/05/09 00:42:27;;;;;;;62.20;35.57;;;;;;;;;;5036623;28;20652;-64
2023/05/09 00:44:57;;;;;;;53.97;34.85;;;;;;;;;;5037474;28;20202;-65
2023/05/09 00:47:27;;;;;;;51.03;34.23;;;;;;;;;;5042238;28;20229;-64
2023/05/09 00:49:56;;;;;;;47.45;32.65;;;;;;;;;;5063981;28;20218;-64
2023/05/09 00:52:25;;;;;;;50.07;35.37;;;;;;;;;;5054474;28;20325;-64
2023/05/09 00:54:52;;;;;;;53.40;34.50;;;;;;;;;;5066671;28;20210;-64
2023/05/09 00:57:21;;;;;;;49.63;34.33;;;;;;;;;;5054590;28;20321;-65
2023/05/09 00:59:49;;;;;;;50.92;34.25;;;;;;;;;;5042771;28;20229;-63
2023/05/09 01:02:18;;;;;;;49.33;34.23;;;;;;;;;;5062155;28;20636;-63
2023/05/09 01:04:46;;;;;;;50.38;33.83;;;;;;;;;;5064532;28;20193;-63
2023/05/09 01:07:30;;;;;;;49.83;34.40;;;;;;;;;;5065674;28;20247;-65
2023/05/09 01:10:03;;;;;;;51.53;33.93;;;;;;;;;;5044997;28;20205;-62
2023/05/09 01:12:55;;;;;;;51.63;35.03;;;;;;;;;;5055386;28;20206;-63
2023/05/09 01:15:48;;;;;;;52.60;35.73;;;;;;;;;;5048595;28;20228;-64
2023/05/09 01:18:21;;;;;;;52.20;35.33;;;;;;;;;;5061521;28;20202;-64
2023/05/09 01:20:55;;;;;;;57.83;36.90;;;;;;;;;;5062439;28;20583;-64
2023/05/09 01:23:56;;;;;;;50.13;33.77;;;;;;;;;;5038946;28;20212;-65
2023/05/09 01:26:43;;;;;;;45.67;32.65;;;;;;;;;;5004050;28;20317;-65
2023/05/09 01:29:20;;;;;;;49.33;33.73;;;;;;;;;;5062035;28;20210;-64
2023/05/09 01:31:50;;;;;;;46.23;32.80;;;;;;;;;;5036563;28;20436;-64
2023/05/09 01:34:18;;;;;;;45.47;32.15;;;;;;;;;;5057840;28;20260;-63
2023/05/09 01:36:47;;;;;;;42.00;29.75;;;;;;;;;;5058830;28;20237;-64
2023/05/09 01:39:16;;;;;;;39.10;29.33;;;;;;;;;;5053222;28;20232;-63
2023/05/09 01:41:48;;;;;;;39.40;28.53;;;;;;;;;;5042348;28;20272;-64
2023/05/09 01:44:17;;;;;;;35.80;26.20;;;;;;;;;;5054096;28;20198;-64
2023/05/09 01:46:45;;;;;;;38.97;26.77;;;;;;;;;;5054030;28;20232;-64
2023/05/09 01:49:15;;;;;;;36.08;26.65;;;;;;;;;;5049303;28;20220;-63
2023/05/09 01:51:43;;;;;;;42.93;30.67;;;;;;;;;;5043390;28;20214;-64
2023/05/09 01:54:11;;;;;;;42.60;31.10;;;;;;;;;;5054872;28;20305;-64
2023/05/09 01:56:40;;;;;;;44.53;30.53;;;;;;;;;;5038598;28;20680;-63
2023/05/09 01:59:14;;;;;;;40.90;30.40;;;;;;;;;;5036967;28;20317;-62
2023/05/09 02:01:44;;;;;;;39.97;29.93;;;;;;;;;;5058523;28;20284;-63
2023/05/09 02:04:13;;;;;;;43.40;30.93;;;;;;;;;;5061446;28;20730;-63
2023/05/09 02:06:43;;;;;;;44.97;31.37;;;;;;;;;;5040867;28;20225;-64
2023/05/09 02:09:13;;;;;;;41.67;30.23;;;;;;;;;;5057447;28;20268;-64
2023/05/09 02:11:40;;;;;;;45.27;32.07;;;;;;;;;;5035411;28;20604;-64
2023/05/09 02:14:08;;;;;;;40.03;29.17;;;;;;;;;;5053968;28;20210;-64
2023/05/09 02:16:39;;;;;;;45.10;31.63;;;;;;;;;;5042623;28;20320;-63
2023/05/09 02:19:09;;;;;;;45.83;32.43;;;;;;;;;;5053492;28;20249;-65
2023/05/09 02:21:36;;;;;;;59.50;36.67;;;;;;;;;;5042370;28;20306;-63
2023/05/09 02:24:07;;;;;;;54.38;36.00;;;;;;;;;;5058236;28;21260;-63
2023/05/09 02:26:36;;;;;;;52.40;34.87;;;;;;;;;;5047876;28;20308;-63
2023/05/09 02:29:05;;;;;;;49.63;34.70;;;;;;;;;;5058599;28;20228;-64
2023/05/09 02:31:34;;;;;;;49.47;34.70;;;;;;;;;;5053485;28;20251;-64
2023/05/09 02:34:04;;;;;;;50.03;32.93;;;;;;;;;;5050851;28;20681;-64
2023/05/09 02:36:33;;;;;;;47.83;33.47;;;;;;;;;;5040165;28;20644;-64
2023/05/09 02:39:01;;;;;;;47.87;32.87;;;;;;;;;;5058450;28;20226;-63
2023/05/09 02:41:29;;;;;;;47.20;32.30;;;;;;;;;;5041742;28;20227;-63
2023/05/09 02:43:58;;;;;;;49.23;33.57;;;;;;;;;;5041377;28;20205;-63
2023/05/09 02:46:26;;;;;;;51.00;34.33;;;;;;;;;;5040195;28;20536;-63
2023/05/09 02:48:55;;;;;;;48.77;33.90;;;;;;;;;;5063853;28;20232;-64
2023/05/09 02:51:25;;;;;;;53.10;35.57;;;;;;;;;;5043402;28;20671;-64
2023/05/09 02:53:52;;;;;;;58.47;36.67;;;;;;;;;;5061332;28;20312;-64
2023/05/09 02:56:20;;;;;;;54.97;36.70;;;;;;;;;;5052618;28;20692;-64
2023/05/09 02:58:50;;;;;;;53.10;35.27;;;;;;;;;;5061915;28;20287;-64
2023/05/09 03:01:17;;;;;;;53.10;35.73;;;;;;;;;;5063056;28;20719;-65
2023/05/09 03:03:46;;;;;;;52.97;35.67;;;;;;;;;;5055721;28;20202;-64
2023/05/09 03:06:15;;;;;;;52.80;36.33;;;;;;;;;;5062500;28;20598;-63
2023/05/09 03:08:43;;;;;;;52.67;35.70;;;;;;;;;;5038200;28;20616;-63
2023/05/09 03:11:11;;;;;;;52.27;35.67;;;;;;;;;;5037508;28;20578;-65
2023/05/09 03:13:40;;;;;;;56.92;36.55;;;;;;;;;;5058048;28;20256;-64
2023/05/09 03:16:07;;;;;;;57.87;38.43;;;;;;;;;;5059669;28;20226;-64
2023/05/09 03:18:35;;;;;;;55.50;35.93;;;;;;;;;;5050818;28;20760;-62
2023/05/09 03:21:03;;;;;;;52.87;37.40;;;;;;;;;;5064299;28;20333;-64
2023/05/09 03:23:32;;;;;;;54.70;37.47;;;;;;;;;;5040013;28;20226;-64
2023/05/09 03:25:59;;;;;;;55.40;38.13;;;;;;;;;;5045071;28;20300;-64
2023/05/09 03:28:28;;;;;;;52.23;36.60;;;;;;;;;;5050633;28;20197;-63
2023/05/09 03:30:57;;;;;;;55.27;37.03;;;;;;;;;;5042917;28;20590;-64
2023/05/09 03:33:24;;;;;;;51.60;35.70;;;;;;;;;;5048551;28;20206;-63
2023/05/09 03:35:55;;;;;;;56.97;38.17;;;;;;;;;;5045104;28;20397;-65
2023/05/09 03:38:23;;;;;;;52.23;35.27;;;;;;;;;;5064646;28;20233;-63
2023/05/09 03:40:53;;;;;;;53.17;35.20;;;;;;;;;;5052360;28;20376;-64
2023/05/09 03:43:20;;;;;;;54.25;36.05;;;;;;;;;;5068710;28;20201;-64
2023/05/09 03:45:48;;;;;;;48.40;35.27;;;;;;;;;;5044272;28;20197;-63
2023/05/09 03:48:16;;;;;;;51.60;35.27;;;;;;;;;;5059111;28;20753;-63
2023/05/09 03:50:48;;;;;;;52.30;36.90;;;;;;;;;;5065815;28;20201;-64
2023/05/09 03:53:16;;;;;;;53.27;35.63;;;;;;;;;;5061551;28;20278;-64
2023/05/09 03:55:44;;;;;;;53.23;36.73;;;;;;;;;;5042932;28;20710;-64
2023/05/09 03:58:13;;;;;;;51.13;35.80;;;;;;;;;;5053500;28;20209;-63
2023/05/09 04:00:42;;;;;;;54.13;37.13;;;;;;;;;;5039339;28;20579;-63
2023/05/09 04:03:09;;;;;;;55.87;36.67;;;;;;;;;;5046636;28;20413;-64
2023/05/09 04:05:37;;;;;;;59.00;38.97;;;;;;;;;;5056274;28;20670;-62
2023/05/09 04:08:05;;;;;;;60.75;39.85;;;;;;;;;;5052695;28;20208;-63
2023/05/09 04:10:33;;;;;;;62.97;39.27;;;;;;;;;;5037375;28;21952;-64
2023/05/09 04:13:01;;;;;;;66.10;41.53;;;;;;;;;;5054776;28;20205;-64
2023/05/09 04:15:30;;;;;;;59.80;39.70;;;;;;;;;;5053790;28;20289;-63
2023/05/09 04:17:59;;;;;;;61.23;38.93;;;;;;;;;;5038346;28;20214;-64
2023/05/09 04:20:27;;;;;;;60.13;39.37;;;;;;;;;;5056817;28;20225;-65
2023/05/09 04:22:57;;;;;;;61.70;39.38;;;;;;;;;;5040438;28;20284;-64
2023/05/09 04:25:26;;;;;;;59.93;39.27;;;;;;;;;;5057533;28;20725;-64
2023/05/09 04:27:55;;;;;;;65.13;40.87;;;;;;;;;;5061643;28;20317;-63
2023/05/09 04:30:25;;;;;;;64.93;40.25;;;;;;;;;;5042058;28;20297;-64
2023/05/09 04:32:55;;;;;;;71.38;40.30;;;;;;;;;;5057919;28;20213;-64
2023/05/09 04:35:22;;;;;;;61.25;40.08;;;;;;;;;;5056544;28;20770;-64
2023/05/09 04:37:51;;;;;;;65.97;40.00;;;;;;;;;;5044505;28;20460;-63
2023/05/09 04:40:19;;;;;;;59.85;39.88;;;;;;;;;;5044610;28;20234;-64
2023/05/09 04:42:48;;;;;;;65.30;41.63;;;;;;;;;;5038964;28;20206;-64
2023/05/09 04:45:17;;;;;;;66.27;38.97;;;;;;;;;;5057535;28;20256;-64
2023/05/09 04:47:45;;;;;;;69.03;40.78;;;;;;;;;;5036461;28;20225;-64
2023/05/09 04:50:13;;;;;;;66.47;39.20;;;;;;;;;;5039174;28;20558;-64
2023/05/09 04:52:40;;;;;;;80.83;39.87;;;;;;;;;;5059083;28;20241;-64
2023/05/09 04:55:08;;;;;;;61.43;39.07;;;;;;;;;;5040494;28;20259;-65
2023/05/09 04:57:36;;;;;;;57.27;38.27;;;;;;;;;;5060038;28;20320;-64
2023/05/09 05:00:10;;;;;;;55.97;36.17;;;;;;;;;;5059141;28;20279;-63
2023/05/09 05:02:38;;;;;;;54.43;36.87;;;;;;;;;;5051650;28;20206;-64
2023/05/09 05:05:07;;;;;;;50.67;34.93;;;;;;;;;;5048763;28;20703;-64
2023/05/09 05:07:39;;;;;;;49.75;33.63;;;;;;;;;;5048249;28;20357;-64
2023/05/09 05:10:07;;;;;;;50.33;35.03;;;;;;;;;;5043002;28;20297;-63
2023/05/09 05:12:35;;;;;;;58.73;34.20;;;;;;;;;;5043380;28;20344;-64
2023/05/09 05:15:03;;;;;;;51.53;34.13;;;;;;;;;;5040877;28;20278;-64
2023/05/09 05:17:32;;;;;;;50.93;33.77;;;;;;;;;;5057152;28;20222;-64
2023/05/09 05:20:00;;;;;;;49.67;34.53;;;;;;;;;;5052669;28;20229;-63
2023/05/09 05:22:27;;;;;;;46.83;33.75;;;;;;;;;;5041818;28;20205;-63
2023/05/09 05:24:58;;;;;;;50.55;35.30;;;;;;;;;;5068869;28;20206;-64
2023/05/09 05:27:28;;;;;;;47.57;33.20;;;;;;;;;;5062009;28;20253;-65
2023/05/09 05:29:56;;;;;;;44.07;32.37;;;;;;;;;;5058968;28;20296;-64
2023/05/09 05:32:26;;;;;;;44.08;31.73;;;;;;;;;;5035268;28;20214;-64
2023/05/09 05:34:54;;;;;;;44.95;32.58;;;;;;;;;;5040933;28;20198;-64
2023/05/09 05:37:22;;;;;;;43.35;31.40;;;;;;;;;;5036275;28;20296;-63
2023/05/09 05:39:51;;;;;;;45.70;33.83;;;;;;;;;;5040601;28;20260;-65
2023/05/09 05:42:19;;;;;;;48.35;33.75;;;;;;;;;;5054542;28;20606;-64
2023/05/09 05:44:48;;;;;;;46.00;32.80;;;;;;;;;;5047997;28;20280;-64
2023/05/09 05:47:16;;;;;;;47.33;32.80;;;;;;;;;;5042645;28;20233;-65
2023/05/09 05:49:45;;;;;;;47.42;34.05;;;;;;;;;;5060286;28;20462;-64
2023/05/09 05:52:13;;;;;;;39.88;30.30;;;;;;;;;;5038457;28;20228;-65
2023/05/09 05:54:41;;;;;;;45.33;31.88;;;;;;;;;;5058876;28;20209;-64
2023/05/09 05:57:11;;;;;;;41.78;31.55;;;;;;;;;;5059088;28;20297;-64
2023/05/09 05:59:39;;;;;;;40.85;29.73;;;;;;;;;;5055034;28;20210;-63
2023/05/09 06:02:06;;;;;;;40.05;30.20;;;;;;;;;;5055888;28;20205;-64
2023/05/09 06:04:35;;;;;;;41.47;29.80;;;;;;;;;;5062445;28;20209;-62
2023/05/09 06:07:03;;;;;;;39.72;29.98;;;;;;;;;;5059305;28;20711;-64
2023/05/09 06:09:30;;;;;;;40.55;29.08;;;;;;;;;;5034728;28;20197;-64
2023/05/09 06:11:58;;;;;;;40.15;29.70;;;;;;;;;;5038557;28;20260;-64
2023/05/09 06:14:28;;;;;;;38.10;29.20;;;;;;;;;;5058840;28;20205;-64
2023/05/09 06:16:56;;;;;;;36.70;28.65;;;;;;;;;;5054723;28;20222;-64
2023/05/09 06:19:31;;;;;;;43.63;30.35;;;;;;;;;;5055991;28;20193;-64
2023/05/09 06:22:00;;;;;;;37.95;28.45;;;;;;;;;;5056390;28;20206;-64
2023/05/09 06:24:27;;;;;;;37.33;29.65;;;;;;;;;;5050396;28;20205;-64
2023/05/09 06:27:03;;;;;;;38.22;30.20;;;;;;;;;;5072695;28;20728;-65
2023/05/09 06:29:30;;;;;;;36.30;28.27;;;;;;;;;;5062803;28;20603;-64
2023/05/09 06:31:58;;;;;;;35.25;28.52;;;;;;;;;;5036851;28;20592;-64
2023/05/09 06:34:26;;;;;;;36.90;27.42;;;;;;;;;;5051839;28;20210;-63
2023/05/09 06:36:53;;;;;;;34.83;27.30;;;;;;;;;;5044701;28;20233;-65
2023/05/09 06:39:22;;;;;;;35.08;28.50;;;;;;;;;;5037045;28;20277;-63
2023/05/09 06:41:49;;;;;;;34.10;28.65;;;;;;;;;;5034149;28;20252;-64
2023/05/09 06:44:17;;;;;;;34.80;28.02;;;;;;;;;;5055259;28;20204;-64
2023/05/09 06:46:44;;;;;;;33.03;27.33;;;;;;;;;;5041320;28;20253;-64
2023/05/09 06:49:16;;;;;;;37.75;29.85;;;;;;;;;;5045668;28;20297;-64
2023/05/09 06:51:45;;;;;;;39.42;30.88;;;;;;;;;;5042488;28;20729;-64
2023/05/09 06:54:13;;;;;;;44.53;29.17;;;;;;;;;;5063981;28;20206;-66
2023/05/09 06:56:41;;;;;;;37.00;28.08;;;;;;;;;;5059547;28;20679;-64
2023/05/09 06:59:12;;;;;;;31.35;25.55;;;;;;;;;;5056875;28;20671;-63
2023/05/09 07:01:40;;;;;;;32.35;25.08;;;;;;;;;;5039907;28;20226;-63
2023/05/09 07:04:09;;;;;;;36.00;26.92;;;;;;;;;;5038298;28;20790;-64
2023/05/09 07:06:37;;;;;;;32.83;26.20;;;;;;;;;;5061431;28;20301;-64
2023/05/09 07:09:07;;;;;;;33.15;25.17;;;;;;;;;;5059831;28;20671;-64
2023/05/09 07:11:38;;;;;;;31.17;25.27;;;;;;;;;;5042016;28;20217;-64
2023/05/09 07:14:05;;;;;;;32.90;26.95;;;;;;;;;;5056931;28;20268;-64
2023/05/09 07:16:34;;;;;;;34.83;28.45;;;;;;;;;;5045956;28;20229;-64
2023/05/09 07:19:04;;;;;;;30.58;25.27;;;;;;;;;;5047866;28;20229;-64
2023/05/09 07:21:33;;;;;;;31.55;25.42;;;;;;;;;;5058938;28;20229;-63
2023/05/09 07:24:01;;;;;;;32.42;25.63;;;;;;;;;;5059926;28;20197;-64
2023/05/09 07:26:28;;;;;;;32.13;25.38;;;;;;;;;;5060477;28;20228;-65
2023/05/09 07:28:56;;;;;;;39.53;27.48;;;;;;;;;;5059141;28;20216;-63
2023/05/09 07:31:25;;;;;;;30.23;24.50;;;;;;;;;;5055402;28;20316;-64
2023/05/09 07:33:52;;;;;;;27.70;22.70;;;;;;;;;;5059862;28;20209;-64
2023/05/09 07:36:20;;;;;;;26.52;22.75;;;;;;;;;;5064087;28;20245;-64
2023/05/09 07:38:49;;;;;;;26.88;22.20;;;;;;;;;;5058389;28;20300;-64
2023/05/09 07:41:18;;;;;;;26.48;21.33;;;;;;;;;;5057526;28;20218;-63
2023/05/09 07:43:47;;;;;;;25.08;19.95;;;;;;;;;;5047373;28;20214;-64
2023/05/09 07:46:15;;;;;;;24.73;20.42;;;;;;;;;;5057217;28;20750;-64
2023/05/09 07:48:44;;;;;;;26.70;21.92;;;;;;;;;;5045575;28;20210;-63
2023/05/09 07:51:21;;;;;;;26.33;21.42;;;;;;;;;;5063082;28;20286;-64
2023/05/09 07:53:48;;;;;;;25.75;20.45;;;;;;;;;;5059515;28;20469;-65
2023/05/09 07:56:18;;;;;;;27.15;20.73;;;;;;;;;;5065830;28;20222;-64
2023/05/09 07:58:45;;;;;;;26.25;21.27;;;;;;;;;;5063249;28;20213;-65
2023/05/09 08:01:13;;;;;;;25.95;21.10;;;;;;;;;;5060576;28;20225;-64
2023/05/09 08:03:40;;;;;;;21.73;18.52;;;;;;;;;;5061295;28;20202;-65
2023/05/09 08:06:08;;;;;;;25.77;21.48;;;;;;;;;;5037691;28;20226;-64
2023/05/09 08:08:36;;;;;;;26.48;19.98;;;;;;;;;;5060046;28;20604;-65
2023/05/09 08:11:05;;;;;;;24.73;20.20;;;;;;;;;;5060149;28;20205;-63
2023/05/09 08:13:34;;;;;;;23.85;19.95;;;;;;;;;;5048561;28;20659;-64
2023/05/09 08:16:03;;;;;;;26.95;22.02;;;;;;;;;;5064319;28;20314;-65
2023/05/09 08:18:31;;;;;;;25.65;20.55;;;;;;;;;;5038461;28;20225;-64
2023/05/09 08:20:59;;;;;;;24.23;19.65;;;;;;;;;;5057405;28;20319;-65
2023/05/09 08:23:29;;;;;;;24.48;20.40;;;;;;;;;;5043640;28;20444;-64
2023/05/09 08:25:57;;;;;;;27.15;20.80;;;;;;;;;;5038709;28;20229;-65
2023/05/09 08:28:27;;;;;;;28.23;20.02;;;;;;;;;;5027442;28;20205;-64
2023/05/09 08:30:56;;;;;;;25.65;20.60;;;;;;;;;;5059216;28;20241;-64
2023/05/09 08:33:24;;;;;;;27.77;21.38;;;;;;;;;;5042292;28;20201;-63
2023/05/09 08:35:53;;;;;;;25.17;21.10;;;;;;;;;;5039044;28;21159;-64
2023/05/09 08:38:20;;;;;;;26.30;21.08;;;;;;;;;;5060827;28;20296;-64
2023/05/09 08:40:48;;;;;;;27.98;23.13;;;;;;;;;;5053367;28;20275;-64
2023/05/09 08:43:19;;;;;;;30.33;23.05;;;;;;;;;;5058954;28;20202;-63
2023/05/09 08:45:47;;;;;;;25.05;20.42;;;;;;;;;;5059415;28;20214;-64
2023/05/09 08:48:18;;;;;;;29.60;22.17;;;;;;;;;;5059644;28;20206;-63
2023/05/09 08:50:45;;;;;;;26.05;21.05;;;;;;;;;;5058627;28;20671;-65
2023/05/09 08:53:13;;;;;;;24.15;18.45;;;;;;;;;;5058330;28;20229;-64
2023/05/09 08:55:40;;;;;;;24.42;19.35;;;;;;;;;;5068505;28;20201;-64
2023/05/09 08:58:09;;;;;;;22.77;17.80;;;;;;;;;;5058548;28;20255;-63
2023/05/09 09:00:40;;;;;;;15.35;13.60;;;;;;;;;;5062452;28;20214;-63
2023/05/09 09:03:07;;;;;;;16.17;13.93;;;;;;;;;;5061644;28;20233;-64
2023/05/09 09:05:36;;;;;;;17.17;14.10;;;;;;;;;;5058432;28;20205;-63
2023/05/09 09:08:09;;;;;;;17.45;14.32;;;;;;;;;;5037809;28;20217;-62
2023/05/09 09:10:40;;;;;;;16.58;13.70;;;;;;;;;;5042555;28;20300;-64
2023/05/09 09:13:08;;;;;;;16.48;14.02;;;;;;;;;;5059994;28;20512;-63
2023/05/09 09:15:36;;;;;;;16.98;13.82;;;;;;;;;;5042746;28;20371;-65
2023/05/09 09:18:06;;;;;;;15.82;13.98;;;;;;;;;;5056103;28;20221;-64
2023/05/09 09:20:35;;;;;;;15.40;13.70;;;;;;;;;;5044816;28;20348;-65
2023/05/09 09:23:04;;;;;;;18.02;15.30;;;;;;;;;;5057352;28;20206;-63
2023/05/09 09:25:31;;;;;;;17.40;15.23;;;;;;;;;;5036005;28;20725;-64
2023/05/09 09:27:59;;;;;;;18.80;15.90;;;;;;;;;;5057973;28;20467;-64
2023/05/09 09:30:29;;;;;;;15.93;13.40;;;;;;;;;;5057924;28;20668;-63
2023/05/09 09:32:59;;;;;;;22.65;13.48;;;;;;;;;;5038119;28;20217;-62
2023/05/09 09:35:26;;;;;;;15.38;11.43;;;;;;;;;;5055492;28;20790;-65
2023/05/09 09:37:58;;;;;;;13.35;11.85;;;;;;;;;;5039967;28;20260;-64
2023/05/09 09:40:26;;;;;;;15.07;12.02;;;;;;;;;;5059016;28;20190;-65
2023/05/09 09:42:53;;;;;;;13.55;11.95;;;;;;;;;;5057638;28;20213;-65
2023/05/09 09:45:21;;;;;;;13.68;12.10;;;;;;;;;;5061535;28;20623;-64
2023/05/09 09:47:49;;;;;;;13.23;11.35;;;;;;;;;;5054390;28;20598;-65
2023/05/09 09:50:17;;;;;;;11.60;9.70;;;;;;;;;;5055480;28;20325;-63
2023/05/09 09:52:52;;;;;;;10.68;9.57;;;;;;;;;;5059864;28;20236;-65
2023/05/09 09:55:20;;;;;;;10.32;8.95;;;;;;;;;;5054845;28;20206;-64
2023/05/09 09:57:50;;;;;;;10.38;9.05;;;;;;;;;;5042311;28;20264;-63
2023/05/09 10:00:20;;;;;;;9.40;8.43;;;;;;;;;;5060979;28;20588;-65
2023/05/09 10:02:51;;;;;;;9.82;8.82;;;;;;;;;;5058600;28;20229;-64
2023/05/09 10:05:26;;;;;;;11.25;8.88;;;;;;;;;;5044491;28;20578;-63
2023/05/09 10:07:55;;;;;;;9.25;8.32;;;;;;;;;;5041904;28;20216;-64
2023/05/09 10:10:22;;;;;;;9.52;8.52;;;;;;;;;;5050419;28;20771;-64
2023/05/09 10:12:50;;;;;;;9.77;8.77;;;;;;;;;;5052667;28;20229;-63
2023/05/09 10:15:19;;;;;;;9.38;8.35;;;;;;;;;;5051466;28;20292;-64
2023/05/09 10:17:47;;;;;;;9.73;8.73;;;;;;;;;;5033072;28;20539;-64
2023/05/09 10:20:16;;;;;;;10.63;8.30;;;;;;;;;;5034389;28;20218;-63
2023/05/09 10:22:44;;;;;;;9.07;8.18;;;;;;;;;;5055190;28;20634;-64
2023/05/09 10:25:18;;;;;;;11.65;9.45;;;;;;;;;;5053528;28;20242;-63
2023/05/09 10:27:46;;;;;;;9.65;8.45;;;;;;;;;;5055734;28;20224;-62
2023/05/09 10:30:18;;;;;;;12.60;8.80;;;;;;;;;;5053002;28;20194;-64
2023/05/09 10:32:50;;;;;;;8.18;7.38;;;;;;;;;;5050628;28;20225;-63
2023/05/09 10:35:19;;;;;;;7.47;6.25;;;;;;;;;;5039070;28;20210;-65
2023/05/09 10:37:47;;;;;;;9.35;7.68;;;;;;;;;;5059035;28;20226;-64
2023/05/09 10:40:15;;;;;;;7.30;6.60;;;;;;;;;;5040869;28;20238;-64
2023/05/09 10:42:43;;;;;;;7.38;6.53;;;;;;;;;;5054664;28;20273;-64
2023/05/09 10:45:13;;;;;;;5.70;5.20;;;;;;;;;;5056439;28;20575;-64
2023/05/09 10:47:43;;;;;;;10.40;5.80;;;;;;;;;;5043266;28;20225;-64
2023/05/09 10:50:12;;;;;;;7.32;5.75;;;;;;;;;;5060870;28;20209;-64
2023/05/09 10:53:07;;;;;;;6.13;4.80;;;;;;;;;;5041751;28;20241;-65
2023/05/09 10:55:36;;;;;;;6.70;4.60;;;;;;;;;;5051464;28;20671;-64
2023/05/09 10:58:23;;;;;;;4.75;4.30;;;;;;;;;;5042868;28;20202;-63
2023/05/09 11:00:53;;;;;;;4.55;3.38;;;;;;;;;;5052330;28;20826;-64
2023/05/09 11:03:24;;;;;;;3.30;3.00;;;;;;;;;;5051906;28;20202;-65
2023/05/09 11:05:53;;;;;;;3.55;3.25;;;;;;;;;;5051303;28;20198;-63
2023/05/09 11:08:27;;;;;;;4.40;3.75;;;;;;;;;;5040974;28;20565;-65
2023/05/09 11:10:59;;;;;;;3.80;3.50;;;;;;;;;;5037625;28;20431;-65
2023/05/09 11:13:30;;;;;;;4.82;3.72;;;;;;;;;;5056312;28;20205;-63
2023/05/09 11:16:01;;;;;;;6.45;4.15;;;;;;;;;;5037152;28;22194;-62
2023/05/09 11:18:30;;;;;;;4.65;3.80;;;;;;;;;;5036518;28;20632;-65
2023/05/09 11:20:58;;;;;;;4.00;3.58;;;;;;;;;;5033360;28;20225;-64
2023/05/09 11:23:30;;;;;;;3.83;3.47;;;;;;;;;;5034446;28;20215;-64
2023/05/09 11:26:06;;;;;;;5.43;4.43;;;;;;;;;;5032218;28;20264;-65
2023/05/09 11:28:35;;;;;;;5.57;4.53;;;;;;;;;;5033605;28;20293;-63
2023/05/09 11:31:15;;;;;;;6.32;4.50;;;;;;;;;;5041293;28;20206;-64
2023/05/09 11:33:45;;;;;;;4.97;4.32;;;;;;;;;;5031793;28;20289;-65
2023/05/09 11:36:24;;;;;;;4.55;4.05;;;;;;;;;;5032841;28;20218;-63
2023/05/09 11:39:01;;;;;;;4.47;4.05;;;;;;;;;;5027132;28;20208;-64
2023/05/09 11:41:30;;;;;;;6.00;4.30;;;;;;;;;;5026733;28;20221;-63
2023/05/09 11:43:59;;;;;;;7.30;4.05;;;;;;;;;;5059335;28;20210;-63
2023/05/09 11:46:26;;;;;;;7.22;4.90;;;;;;;;;;5055423;28;20411;-63
2023/05/09 11:48:54;;;;;;;4.93;4.53;;;;;;;;;;5041200;28;20263;-64
2023/05/09 11:51:21;;;;;;;6.68;4.50;;;;;;;;;;5036438;28;20208;-65
2023/05/09 11:53:50;;;;;;;5.82;5.22;;;;;;;;;;5042445;28;20588;-65
2023/05/09 11:56:18;;;;;;;5.40;4.82;;;;;;;;;;5063171;28;20233;-63
2023/05/09 11:58:50;;;;;;;8.23;5.03;;;;;;;;;;5055979;28;20481;-65
2023/05/09 12:01:18;;;;;;;6.00;4.85;;;;;;;;;;5044118;28;20206;-62
2023/05/09 12:03:46;;;;;;;7.57;5.18;;;;;;;;;;5058336;28;20206;-62
2023/05/09 12:06:20;;;;;;;4.68;4.28;;;;;;;;;;5043939;28;20226;-64
2023/05/09 12:08:48;;;;;;;5.13;4.10;;;;;;;;;;5032894;28;20201;-65
2023/05/09 12:11:17;;;;;;;4.97;4.00;;;;;;;;;;5054401;28;20372;-65
2023/05/09 12:13:47;;;;;;;4.45;3.70;;;;;;;;;;5060395;28;20317;-63
2023/05/09 12:16:16;;;;;;;5.45;3.90;;;;;;;;;;5048440;28;20217;-64
2023/05/09 12:18:44;;;;;;;5.88;3.67;;;;;;;;;;5038632;28;20867;-63
2023/05/09 12:21:12;;;;;;;4.50;4.07;;;;;;;;;;5058324;28;20206;-64
2023/05/09 12:23:40;;;;;;;4.03;3.63;;;;;;;;;;5040220;28;20297;-64
2023/05/09 12:26:08;;;;;;;4.22;3.70;;;;;;;;;;5050710;28;20222;-66
2023/05/09 12:28:38;;;;;;;3.92;3.60;;;;;;;;;;5050032;28;20194;-64
2023/05/09 12:31:05;;;;;;;4.65;4.25;;;;;;;;;;5056829;28;20225;-64
2023/05/09 12:33:33;;;;;;;4.07;3.35;;;;;;;;;;5045320;28;20674;-64
2023/05/09 12:36:02;;;;;;;3.83;3.42;;;;;;;;;;5056955;28;20755;-64
2023/05/09 12:38:30;;;;;;;6.60;4.05;;;;;;;;;;5053976;28;20230;-63
2023/05/09 12:41:01;;;;;;;3.75;3.30;;;;;;;;;;5051016;28;20210;-64
2023/05/09 12:43:31;;;;;;;3.75;3.45;;;;;;;;;;5040946;28;20218;-64
2023/05/09 12:46:01;;;;;;;6.18;3.72;;;;;;;;;;5056635;28;20236;-63
2023/05/09 12:48:29;;;;;;;3.38;3.10;;;;;;;;;;5060538;28;20208;-64
2023/05/09 12:50:56;;;;;;;3.13;2.65;;;;;;;;;;5055545;28;21310;-64
2023/05/09 12:53:24;;;;;;;3.17;2.92;;;;;;;;;;5037162;28;20213;-65
2023/05/09 12:55:56;;;;;;;4.50;3.40;;;;;;;;;;5038036;28;20202;-64
2023/05/09 12:58:28;;;;;;;3.85;3.53;;;;;;;;;;5059530;28;20260;-63
2023/05/09 13:00:55;;;;;;;4.00;2.80;;;;;;;;;;5034764;28;21115;-65
2023/05/09 13:03:24;;;;;;;3.17;2.92;;;;;;;;;;5053963;28;20260;-65
2023/05/09 13:06:03;;;;;;;3.38;3.08;;;;;;;;;;5057301;28;20222;-65
2023/05/09 13:08:31;;;;;;;3.33;2.95;;;;;;;;;;5059783;28;20202;-63
2023/05/09 13:11:00;;;;;;;3.55;3.22;;;;;;;;;;5056357;28;20205;-64
2023/05/09 13:13:42;;;;;;;3.60;2.85;;;;;;;;;;5071571;28;20197;-65
2023/05/09 13:16:10;;;;;;;2.72;2.53;;;;;;;;;;5056390;28;20252;-63
2023/05/09 13:18:42;;;;;;;3.88;2.75;;;;;;;;;;5053599;28;20201;-65
2023/05/09 13:21:10;;;;;;;3.30;3.00;;;;;;;;;;5055522;28;20221;-64
2023/05/09 13:23:38;;;;;;;3.78;2.58;;;;;;;;;;5040298;28;20287;-65
2023/05/09 13:26:07;;;;;;;3.05;2.50;;;;;;;;;;5042316;28;20213;-64
2023/05/09 13:28:34;;;;;;;3.08;2.88;;;;;;;;;;5059038;28;20201;-65
2023/05/09 13:31:03;;;;;;;3.10;2.65;;;;;;;;;;5037567;28;20338;-64
2023/05/09 13:33:32;;;;;;;2.80;2.50;;;;;;;;;;5037786;28;20201;-64
2023/05/09 13:36:00;;;;;;;2.95;2.70;;;;;;;;;;5060385;28;20218;-64
2023/05/09 13:38:34;;;;;;;2.65;2.47;;;;;;;;;;5059109;28;20212;-66
2023/05/09 13:41:03;;;;;;;2.90;2.70;;;;;;;;;;5040287;28;20292;-64
2023/05/09 13:43:31;;;;;;;3.45;2.90;;;;;;;;;;5048628;28;20229;-64
2023/05/09 13:45:59;;;;;;;3.47;2.90;;;;;;;;;;5048223;28;20271;-64
2023/05/09 13:48:28;;;;;;;2.97;2.78;;;;;;;;;;5062242;28;20466;-64
2023/05/09 13:50:58;;;;;;;2.95;2.75;;;;;;;;;;5041927;28;20656;-65
2023/05/09 13:53:25;;;;;;;2.67;2.45;;;;;;;;;;5044445;28;20676;-64
2023/05/09 13:55:53;;;;;;;2.92;2.72;;;;;;;;;;5039159;28;20320;-64
2023/05/09 13:58:21;;;;;;;2.50;2.30;;;;;;;;;;5056226;28;20206;-64
2023/05/09 14:00:49;;;;;;;3.78;3.03;;;;;;;;;;5039868;28;20230;-64
2023/05/09 14:03:17;;;;;;;3.47;2.95;;;;;;;;;;5038186;28;20466;-63
2023/05/09 14:05:44;;;;;;;3.90;3.55;;;;;;;;;;5061504;28;20318;-65
2023/05/09 14:08:13;;;;;;;3.20;2.90;;;;;;;;;;5061962;28;20243;-65
2023/05/09 14:10:41;;;;;;;5.03;3.47;;;;;;;;;;5058301;28;20198;-64
2023/05/09 14:13:11;;;;;;;3.78;3.47;;;;;;;;;;5043560;28;20221;-64
2023/05/09 14:15:39;;;;;;;6.30;5.70;;;;;;;;;;5052996;28;20411;-67
2023/05/09 14:18:07;;;;;;;5.10;4.70;;;;;;;;;;5040313;28;20664;-63
2023/05/09 14:20:36;;;;;;;4.65;4.13;;;;;;;;;;5067029;28;20209;-63
2023/05/09 14:23:04;;;;;;;3.72;3.42;;;;;;;;;;5056563;28;20699;-64
2023/05/09 14:25:33;;;;;;;3.78;3.40;;;;;;;;;;5055054;28;20553;-64
2023/05/09 14:28:01;;;;;;;3.60;3.35;;;;;;;;;;5041102;28;20769;-64
2023/05/09 14:30:29;;;;;;;3.90;3.60;;;;;;;;;;5038460;28;20202;-64
2023/05/09 14:32:58;;;;;;;4.00;3.70;;;;;;;;;;5065661;28;20259;-64
2023/05/09 14:35:26;;;;;;;5.82;3.92;;;;;;;;;;5065438;28;20651;-64
2023/05/09 14:37:54;;;;;;;4.05;3.72;;;;;;;;;;5055790;28;20244;-63